sensor_id;sensor_type;location;lat;lon;timestamp;temperature;humidity
1011;DHT22;494;48.744;10.106;2022-10-16T00:01:53;17.40;54.10
1011;DHT22;494;48.744;10.106;2022-10-16T00:04:22;17.40;54.70
1011;DHT22;494;48.744;10.106;2022-10-16T00:06:51;17.40;54.00
1011;DHT22;494;48.744;10.106;2022-10-16T00:09:19;17.40;54.00
1011;DHT22;494;48.744;10.106;2022-10-16T00:11:48;17.40;53.90
1011;DHT22;494;48.744;10.106;2022-10-16T00:14:17;17.40;53.90
1011;DHT22;494;48.744;10.106;2022-10-16T00:16:46;17.30;53.80
1011;DHT22;494;48.744;10.106;2022-10-16T00:19:16;17.10;54.20
1011;DHT22;494;48.744;10.106;2022-10-16T00:21:44;17.00;54.40
1011;DHT22;494;48.744;10.106;2022-10-16T00:24:13;16.80;56.40
1011;DHT22;494;48.744;10.106;2022-10-16T00:26:41;16.70;57.60
1011;DHT22;494;48.744;10.106;2022-10-16T00:29:11;16.60;58.00
1011;DHT22;494;48.744;10.106;2022-10-16T00:31:39;16.60;58.20
1011;DHT22;494;48.744;10.106;2022-10-16T00:34:08;16.60;58.40
1011;DHT22;494;48.744;10.106;2022-10-16T00:36:38;16.60;58.80
1011;DHT22;494;48.744;10.106;2022-10-16T00:39:07;16.60;58.90
1011;DHT22;494;48.744;10.106;2022-10-16T00:41:35;16.60;58.40
1011;DHT22;494;48.744;10.106;2022-10-16T00:44:45;16.70;58.30
1011;DHT22;494;48.744;10.106;2022-10-16T00:47:20;16.70;57.70
1011;DHT22;494;48.744;10.106;2022-10-16T00:49:57;16.80;57.00
1011;DHT22;494;48.744;10.106;2022-10-16T00:52:30;16.80;56.60
1011;DHT22;494;48.744;10.106;2022-10-16T00:54:59;16.70;56.10
1011;DHT22;494;48.744;10.106;2022-10-16T00:57:30;16.70;56.30
1011;DHT22;494;48.744;10.106;2022-10-16T01:00:00;16.70;56.10
1011;DHT22;494;48.744;10.106;2022-10-16T01:02:30;16.70;55.90
1011;DHT22;494;48.744;10.106;2022-10-16T01:04:59;16.70;55.80
1011;DHT22;494;48.744;10.106;2022-10-16T01:07:36;16.70;55.60
1011;DHT22;494;48.744;10.106;2022-10-16T01:10:20;16.70;55.50
1011;DHT22;494;48.744;10.106;2022-10-16T01:13:02;16.70;55.20
1011;DHT22;494;48.744;10.106;2022-10-16T01:15:39;16.70;54.80
1011;DHT22;494;48.744;10.106;2022-10-16T01:18:16;16.70;54.70
1011;DHT22;494;48.744;10.106;2022-10-16T01:20:55;16.70;54.60
1011;DHT22;494;48.744;10.106;2022-10-16T01:23:36;16.70;54.40
1011;DHT22;494;48.744;10.106;2022-10-16T01:26:16;16.70;54.20
1011;DHT22;494;48.744;10.106;2022-10-16T01:29:08;16.70;54.20
1011;DHT22;494;48.744;10.106;2022-10-16T01:31:48;16.60;54.10
1011;DHT22;494;48.744;10.106;2022-10-16T01:34:25;16.60;54.00
1011;DHT22;494;48.744;10.106;2022-10-16T01:37:06;16.50;54.00
1011;DHT22;494;48.744;10.106;2022-10-16T01:39:41;16.50;53.90
1011;DHT22;494;48.744;10.106;2022-10-16T01:42:18;16.50;54.60
1011;DHT22;494;48.744;10.106;2022-10-16T01:44:52;16.40;53.70
1011;DHT22;494;48.744;10.106;2022-10-16T01:47:23;16.30;53.90
1011;DHT22;494;48.744;10.106;2022-10-16T01:49:56;16.20;54.00
1011;DHT22;494;48.744;10.106;2022-10-16T01:52:28;16.10;54.00
1011;DHT22;494;48.744;10.106;2022-10-16T01:54:59;16.10;54.30
1011;DHT22;494;48.744;10.106;2022-10-16T01:57:31;16.10;54.30
1011;DHT22;494;48.744;10.106;2022-10-16T02:00:08;16.00;54.10
1011;DHT22;494;48.744;10.106;2022-10-16T02:02:39;16.00;54.00
1011;DHT22;494;48.744;10.106;2022-10-16T02:05:14;16.00;54.10
1011;DHT22;494;48.744;10.106;2022-10-16T02:07:47;16.00;54.00
1011;DHT22;494;48.744;10.106;2022-10-16T02:10:16;16.10;54.00
1011;DHT22;494;48.744;10.106;2022-10-16T02:12:49;16.00;53.90
1011;DHT22;494;48.744;10.106;2022-10-16T02:15:25;16.00;54.10
1011;DHT22;494;48.744;10.106;2022-10-16T02:17:54;16.10;54.10
1011;DHT22;494;48.744;10.106;2022-10-16T02:20:27;16.10;54.10
1011;DHT22;494;48.744;10.106;2022-10-16T02:23:02;16.10;54.10
1011;DHT22;494;48.744;10.106;2022-10-16T02:25:34;16.10;54.00
1011;DHT22;494;48.744;10.106;2022-10-16T02:28:10;16.10;54.00
1011;DHT22;494;48.744;10.106;2022-10-16T02:30:50;16.20;53.90
1011;DHT22;494;48.744;10.106;2022-10-16T02:33:24;16.20;53.90
1011;DHT22;494;48.744;10.106;2022-10-16T02:35:54;16.30;54.10
1011;DHT22;494;48.744;10.106;2022-10-16T02:38:25;16.20;54.10
1011;DHT22;494;48.744;10.106;2022-10-16T02:40:55;16.20;54.20
1011;DHT22;494;48.744;10.106;2022-10-16T02:43:25;16.10;54.60
1011;DHT22;494;48.744;10.106;2022-10-16T02:45:55;16.00;54.70
1011;DHT22;494;48.744;10.106;2022-10-16T02:48:23;16.10;54.70
1011;DHT22;494;48.744;10.106;2022-10-16T02:50:52;16.10;54.60
1011;DHT22;494;48.744;10.106;2022-10-16T02:53:20;16.10;54.50
1011;DHT22;494;48.744;10.106;2022-10-16T02:55:49;16.10;54.40
1011;DHT22;494;48.744;10.106;2022-10-16T02:58:18;16.10;54.40
1011;DHT22;494;48.744;10.106;2022-10-16T03:00:46;16.10;54.60
1011;DHT22;494;48.744;10.106;2022-10-16T03:03:16;16.10;55.00
1011;DHT22;494;48.744;10.106;2022-10-16T03:05:45;16.10;55.10
1011;DHT22;494;48.744;10.106;2022-10-16T03:08:14;16.10;54.90
1011;DHT22;494;48.744;10.106;2022-10-16T03:10:42;16.20;54.80
1011;DHT22;494;48.744;10.106;2022-10-16T03:13:11;16.10;54.80
1011;DHT22;494;48.744;10.106;2022-10-16T03:15:39;16.20;54.80
1011;DHT22;494;48.744;10.106;2022-10-16T03:18:08;16.10;54.70
1011;DHT22;494;48.744;10.106;2022-10-16T03:20:38;16.00;54.70
1011;DHT22;494;48.744;10.106;2022-10-16T03:23:07;16.00;55.10
1011;DHT22;494;48.744;10.106;2022-10-16T03:25:35;16.00;55.30
1011;DHT22;494;48.744;10.106;2022-10-16T03:28:05;16.00;55.30
1011;DHT22;494;48.744;10.106;2022-10-16T03:30:33;16.00;55.60
1011;DHT22;494;48.744;10.106;2022-10-16T03:33:02;16.00;55.80
1011;DHT22;494;48.744;10.106;2022-10-16T03:35:31;15.90;56.50
1011;DHT22;494;48.744;10.106;2022-10-16T03:38:01;15.70;59.20
1011;DHT22;494;48.744;10.106;2022-10-16T03:40:30;15.60;60.50
1011;DHT22;494;48.744;10.106;2022-10-16T03:42:59;15.60;61.20
1011;DHT22;494;48.744;10.106;2022-10-16T03:45:28;15.70;61.40
1011;DHT22;494;48.744;10.106;2022-10-16T03:47:56;15.60;61.40
1011;DHT22;494;48.744;10.106;2022-10-16T03:50:25;15.60;61.60
1011;DHT22;494;48.744;10.106;2022-10-16T03:52:53;15.60;61.50
1011;DHT22;494;48.744;10.106;2022-10-16T03:55:23;15.70;61.20
1011;DHT22;494;48.744;10.106;2022-10-16T03:57:52;15.80;60.90
1011;DHT22;494;48.744;10.106;2022-10-16T04:00:20;15.80;60.60
1011;DHT22;494;48.744;10.106;2022-10-16T04:02:49;15.90;61.10
1011;DHT22;494;48.744;10.106;2022-10-16T04:05:18;15.90;60.10
1011;DHT22;494;48.744;10.106;2022-10-16T04:07:46;16.00;59.70
1011;DHT22;494;48.744;10.106;2022-10-16T04:10:15;16.10;59.50
1011;DHT22;494;48.744;10.106;2022-10-16T04:12:45;16.10;59.10
1011;DHT22;494;48.744;10.106;2022-10-16T04:15:14;16.30;58.70
1011;DHT22;494;48.744;10.106;2022-10-16T04:17:42;16.30;58.00
1011;DHT22;494;48.744;10.106;2022-10-16T04:20:11;16.20;57.10
1011;DHT22;494;48.744;10.106;2022-10-16T04:22:39;16.30;56.70
1011;DHT22;494;48.744;10.106;2022-10-16T04:25:08;16.20;55.40
1011;DHT22;494;48.744;10.106;2022-10-16T04:27:38;16.10;55.30
1011;DHT22;494;48.744;10.106;2022-10-16T04:30:13;15.90;56.00
1011;DHT22;494;48.744;10.106;2022-10-16T04:32:42;15.90;56.50
1011;DHT22;494;48.744;10.106;2022-10-16T04:35:11;16.00;56.60
1011;DHT22;494;48.744;10.106;2022-10-16T04:37:39;16.00;56.60
1011;DHT22;494;48.744;10.106;2022-10-16T04:40:08;16.00;56.40
1011;DHT22;494;48.744;10.106;2022-10-16T04:42:37;16.10;56.40
1011;DHT22;494;48.744;10.106;2022-10-16T04:45:06;16.10;56.20
1011;DHT22;494;48.744;10.106;2022-10-16T04:47:42;16.10;56.00
1011;DHT22;494;48.744;10.106;2022-10-16T04:50:10;16.20;55.80
1011;DHT22;494;48.744;10.106;2022-10-16T04:52:39;16.20;55.80
1011;DHT22;494;48.744;10.106;2022-10-16T04:55:08;16.10;56.20
1011;DHT22;494;48.744;10.106;2022-10-16T04:57:36;16.00;57.00
1011;DHT22;494;48.744;10.106;2022-10-16T05:00:06;16.00;57.60
1011;DHT22;494;48.744;10.106;2022-10-16T05:02:36;16.00;58.10
1011;DHT22;494;48.744;10.106;2022-10-16T05:05:06;15.90;58.70
1011;DHT22;494;48.744;10.106;2022-10-16T05:07:35;15.90;58.60
1011;DHT22;494;48.744;10.106;2022-10-16T05:10:05;15.90;58.60
1011;DHT22;494;48.744;10.106;2022-10-16T05:12:33;15.60;57.80
1011;DHT22;494;48.744;10.106;2022-10-16T05:15:03;15.80;57.90
1011;DHT22;494;48.744;10.106;2022-10-16T05:17:32;15.90;57.60
1011;DHT22;494;48.744;10.106;2022-10-16T05:20:00;16.00;57.20
1011;DHT22;494;48.744;10.106;2022-10-16T05:22:31;16.00;56.80
1011;DHT22;494;48.744;10.106;2022-10-16T05:25:00;16.00;56.40
1011;DHT22;494;48.744;10.106;2022-10-16T05:27:28;16.00;56.20
1011;DHT22;494;48.744;10.106;2022-10-16T05:29:57;16.00;55.80
1011;DHT22;494;48.744;10.106;2022-10-16T05:32:25;16.00;55.60
1011;DHT22;494;48.744;10.106;2022-10-16T05:34:54;15.90;55.80
1011;DHT22;494;48.744;10.106;2022-10-16T05:37:23;15.90;55.80
1011;DHT22;494;48.744;10.106;2022-10-16T05:39:53;15.90;55.60
1011;DHT22;494;48.744;10.106;2022-10-16T05:42:26;16.00;55.70
1011;DHT22;494;48.744;10.106;2022-10-16T05:45:07;16.00;55.60
1011;DHT22;494;48.744;10.106;2022-10-16T05:47:38;16.00;55.20
1011;DHT22;494;48.744;10.106;2022-10-16T05:50:07;16.00;55.30
1011;DHT22;494;48.744;10.106;2022-10-16T05:52:37;16.00;55.40
1011;DHT22;494;48.744;10.106;2022-10-16T05:55:07;16.10;55.50
1011;DHT22;494;48.744;10.106;2022-10-16T05:57:36;16.10;55.20
1011;DHT22;494;48.744;10.106;2022-10-16T06:00:06;16.00;54.90
1011;DHT22;494;48.744;10.106;2022-10-16T06:02:35;15.90;55.50
1011;DHT22;494;48.744;10.106;2022-10-16T06:05:04;16.00;55.80
1011;DHT22;494;48.744;10.106;2022-10-16T06:07:34;16.10;55.70
1011;DHT22;494;48.744;10.106;2022-10-16T06:10:04;16.10;55.70
1011;DHT22;494;48.744;10.106;2022-10-16T06:12:35;16.20;55.60
1011;DHT22;494;48.744;10.106;2022-10-16T06:15:05;16.30;55.50
1011;DHT22;494;48.744;10.106;2022-10-16T06:17:34;16.30;55.30
1011;DHT22;494;48.744;10.106;2022-10-16T06:20:03;16.40;55.40
1011;DHT22;494;48.744;10.106;2022-10-16T06:22:33;16.40;54.90
1011;DHT22;494;48.744;10.106;2022-10-16T06:25:01;16.50;54.80
1011;DHT22;494;48.744;10.106;2022-10-16T06:27:31;16.60;54.60
1011;DHT22;494;48.744;10.106;2022-10-16T06:30:00;16.60;53.80
1011;DHT22;494;48.744;10.106;2022-10-16T06:32:30;16.60;53.80
1011;DHT22;494;48.744;10.106;2022-10-16T06:34:59;16.60;54.10
1011;DHT22;494;48.744;10.106;2022-10-16T06:37:27;16.70;54.20
1011;DHT22;494;48.744;10.106;2022-10-16T06:39:56;16.80;54.20
1011;DHT22;494;48.744;10.106;2022-10-16T06:42:24;16.80;54.10
1011;DHT22;494;48.744;10.106;2022-10-16T06:44:55;16.90;54.00
1011;DHT22;494;48.744;10.106;2022-10-16T06:47:24;17.00;53.80
1011;DHT22;494;48.744;10.106;2022-10-16T06:49:52;17.10;53.70
1011;DHT22;494;48.744;10.106;2022-10-16T06:52:21;17.20;53.40
1011;DHT22;494;48.744;10.106;2022-10-16T06:54:50;17.20;52.60
1011;DHT22;494;48.744;10.106;2022-10-16T06:57:18;17.20;53.20
1011;DHT22;494;48.744;10.106;2022-10-16T06:59:47;17.20;53.40
1011;DHT22;494;48.744;10.106;2022-10-16T07:02:22;17.10;53.50
1011;DHT22;494;48.744;10.106;2022-10-16T07:04:51;17.10;53.70
1011;DHT22;494;48.744;10.106;2022-10-16T07:07:20;17.20;54.20
1011;DHT22;494;48.744;10.106;2022-10-16T07:09:51;17.30;54.30
1011;DHT22;494;48.744;10.106;2022-10-16T07:12:20;17.50;54.00
1011;DHT22;494;48.744;10.106;2022-10-16T07:14:49;17.50;53.70
1011;DHT22;494;48.744;10.106;2022-10-16T07:17:19;17.60;54.10
1011;DHT22;494;48.744;10.106;2022-10-16T07:19:49;18.00;54.60
1011;DHT22;494;48.744;10.106;2022-10-16T07:22:20;18.40;51.00
1011;DHT22;494;48.744;10.106;2022-10-16T07:24:48;18.60;50.50
1011;DHT22;494;48.744;10.106;2022-10-16T07:27:18;18.70;48.10
1011;DHT22;494;48.744;10.106;2022-10-16T07:29:49;18.60;48.50
1011;DHT22;494;48.744;10.106;2022-10-16T07:32:18;18.50;49.00
1011;DHT22;494;48.744;10.106;2022-10-16T07:34:48;18.50;49.20
1011;DHT22;494;48.744;10.106;2022-10-16T07:37:17;18.60;49.20
1011;DHT22;494;48.744;10.106;2022-10-16T07:39:45;18.60;48.80
1011;DHT22;494;48.744;10.106;2022-10-16T07:42:14;18.50;49.30
1011;DHT22;494;48.744;10.106;2022-10-16T07:44:43;18.40;49.40
1011;DHT22;494;48.744;10.106;2022-10-16T07:47:11;18.30;49.50
1011;DHT22;494;48.744;10.106;2022-10-16T07:49:40;18.10;50.50
1011;DHT22;494;48.744;10.106;2022-10-16T07:52:12;18.10;51.20
1011;DHT22;494;48.744;10.106;2022-10-16T07:54:41;18.10;51.70
1011;DHT22;494;48.744;10.106;2022-10-16T07:57:10;18.00;51.90
1011;DHT22;494;48.744;10.106;2022-10-16T07:59:38;18.00;52.30
1011;DHT22;494;48.744;10.106;2022-10-16T08:02:07;18.00;52.50
1011;DHT22;494;48.744;10.106;2022-10-16T08:04:36;18.00;52.30
1011;DHT22;494;48.744;10.106;2022-10-16T08:07:06;17.90;52.80
1011;DHT22;494;48.744;10.106;2022-10-16T08:09:37;17.80;53.10
1011;DHT22;494;48.744;10.106;2022-10-16T08:12:06;17.80;53.40
1011;DHT22;494;48.744;10.106;2022-10-16T08:14:37;17.90;53.40
1011;DHT22;494;48.744;10.106;2022-10-16T08:17:09;18.00;53.20
1011;DHT22;494;48.744;10.106;2022-10-16T08:19:37;18.10;53.00
1011;DHT22;494;48.744;10.106;2022-10-16T08:22:06;18.30;51.90
1011;DHT22;494;48.744;10.106;2022-10-16T08:24:34;18.40;51.40
1011;DHT22;494;48.744;10.106;2022-10-16T08:27:05;18.50;51.20
1011;DHT22;494;48.744;10.106;2022-10-16T08:29:34;18.70;50.00
1011;DHT22;494;48.744;10.106;2022-10-16T08:32:04;18.90;50.00
1011;DHT22;494;48.744;10.106;2022-10-16T08:34:33;19.10;48.20
1011;DHT22;494;48.744;10.106;2022-10-16T08:37:01;19.10;48.40
1011;DHT22;494;48.744;10.106;2022-10-16T08:39:30;19.10;48.80
1011;DHT22;494;48.744;10.106;2022-10-16T08:42:19;19.30;48.50
1011;DHT22;494;48.744;10.106;2022-10-16T08:48:13;19.30;47.60
1011;DHT22;494;48.744;10.106;2022-10-16T08:50:49;19.10;48.20
1011;DHT22;494;48.744;10.106;2022-10-16T08:53:24;19.20;48.90
1011;DHT22;494;48.744;10.106;2022-10-16T08:55:58;19.10;49.10
1011;DHT22;494;48.744;10.106;2022-10-16T08:58:29;19.10;49.10
1011;DHT22;494;48.744;10.106;2022-10-16T09:01:00;19.20;48.40
1011;DHT22;494;48.744;10.106;2022-10-16T09:03:47;19.20;49.10
1011;DHT22;494;48.744;10.106;2022-10-16T09:06:33;19.30;49.30
1011;DHT22;494;48.744;10.106;2022-10-16T09:09:26;19.30;48.30
1011;DHT22;494;48.744;10.106;2022-10-16T09:12:20;19.40;49.20
1011;DHT22;494;48.744;10.106;2022-10-16T09:15:10;19.50;48.10
1011;DHT22;494;48.744;10.106;2022-10-16T09:17:54;19.60;48.30
1011;DHT22;494;48.744;10.106;2022-10-16T09:20:39;19.70;48.10
1011;DHT22;494;48.744;10.106;2022-10-16T09:23:18;19.70;47.70
1011;DHT22;494;48.744;10.106;2022-10-16T09:25:50;19.70;47.80
1011;DHT22;494;48.744;10.106;2022-10-16T09:28:20;19.70;48.20
1011;DHT22;494;48.744;10.106;2022-10-16T09:30:52;19.80;48.30
1011;DHT22;494;48.744;10.106;2022-10-16T09:33:24;19.80;48.10
1011;DHT22;494;48.744;10.106;2022-10-16T09:35:56;19.80;48.00
1011;DHT22;494;48.744;10.106;2022-10-16T09:38:28;19.80;48.30
1011;DHT22;494;48.744;10.106;2022-10-16T09:40:59;19.80;48.30
1011;DHT22;494;48.744;10.106;2022-10-16T09:43:34;19.80;48.30
1011;DHT22;494;48.744;10.106;2022-10-16T09:46:08;19.90;48.30
1011;DHT22;494;48.744;10.106;2022-10-16T09:48:50;19.70;48.10
1011;DHT22;494;48.744;10.106;2022-10-16T09:51:25;19.80;48.30
1011;DHT22;494;48.744;10.106;2022-10-16T09:53:57;20.00;48.20
1011;DHT22;494;48.744;10.106;2022-10-16T09:56:29;20.20;47.60
1011;DHT22;494;48.744;10.106;2022-10-16T09:59:07;20.50;47.40
1011;DHT22;494;48.744;10.106;2022-10-16T10:01:44;21.00;46.20
1011;DHT22;494;48.744;10.106;2022-10-16T10:04:15;21.60;43.10
1011;DHT22;494;48.744;10.106;2022-10-16T10:06:46;21.90;40.20
1011;DHT22;494;48.744;10.106;2022-10-16T10:10:45;22.20;39.70
1011;DHT22;494;48.744;10.106;2022-10-16T10:14:03;22.70;38.10
1011;DHT22;494;48.744;10.106;2022-10-16T10:17:11;22.80;36.90
1011;DHT22;494;48.744;10.106;2022-10-16T10:19:48;22.60;36.60
1011;DHT22;494;48.744;10.106;2022-10-16T10:22:27;22.70;37.00
1011;DHT22;494;48.744;10.106;2022-10-16T10:25:43;22.60;37.70
1011;DHT22;494;48.744;10.106;2022-10-16T10:28:46;22.50;38.20
1011;DHT22;494;48.744;10.106;2022-10-16T10:31:42;22.40;37.50
1011;DHT22;494;48.744;10.106;2022-10-16T10:34:34;22.40;38.20
1011;DHT22;494;48.744;10.106;2022-10-16T10:37:38;22.40;38.80
1011;DHT22;494;48.744;10.106;2022-10-16T10:45:15;22.30;38.10
1011;DHT22;494;48.744;10.106;2022-10-16T11:02:15;22.40;37.70
1011;DHT22;494;48.744;10.106;2022-10-16T11:10:33;22.70;37.20
1011;DHT22;494;48.744;10.106;2022-10-16T11:31:50;33.20;11.60
1011;DHT22;494;48.744;10.106;2022-10-16T11:34:29;34.40;10.30
1011;DHT22;494;48.744;10.106;2022-10-16T11:37:09;35.00;9.60
1011;DHT22;494;48.744;10.106;2022-10-16T11:39:41;35.70;7.70
1011;DHT22;494;48.744;10.106;2022-10-16T11:42:21;36.20;7.80
1011;DHT22;494;48.744;10.106;2022-10-16T11:45:02;36.80;6.50
1011;DHT22;494;48.744;10.106;2022-10-16T11:47:44;37.30;6.50
1011;DHT22;494;48.744;10.106;2022-10-16T11:50:31;37.80;5.70
1011;DHT22;494;48.744;10.106;2022-10-16T11:53:11;38.10;5.70
1011;DHT22;494;48.744;10.106;2022-10-16T11:55:45;38.20;5.20
1011;DHT22;494;48.744;10.106;2022-10-16T11:58:24;38.40;3.70
1011;DHT22;494;48.744;10.106;2022-10-16T12:04:25;37.80;4.50
1011;DHT22;494;48.744;10.106;2022-10-16T12:07:08;37.30;4.90
1011;DHT22;494;48.744;10.106;2022-10-16T12:09:41;37.20;4.90
1011;DHT22;494;48.744;10.106;2022-10-16T12:12:24;37.20;5.00
1011;DHT22;494;48.744;10.106;2022-10-16T12:15:15;37.50;4.90
1011;DHT22;494;48.744;10.106;2022-10-16T12:18:21;38.00;4.60
1011;DHT22;494;48.744;10.106;2022-10-16T12:20:55;38.80;3.90
1011;DHT22;494;48.744;10.106;2022-10-16T12:23:26;38.90;3.90
1011;DHT22;494;48.744;10.106;2022-10-16T12:26:38;38.70;3.00
1011;DHT22;494;48.744;10.106;2022-10-16T12:29:32;37.50;5.50
1011;DHT22;494;48.744;10.106;2022-10-16T12:32:20;36.90;5.50
1011;DHT22;494;48.744;10.106;2022-10-16T12:35:21;37.30;5.50
1011;DHT22;494;48.744;10.106;2022-10-16T12:37:54;38.50;4.10
1011;DHT22;494;48.744;10.106;2022-10-16T12:43:52;39.50;3.00
1011;DHT22;494;48.744;10.106;2022-10-16T12:46:38;39.70;3.10
1011;DHT22;494;48.744;10.106;2022-10-16T12:49:29;40.30;2.80
1011;DHT22;494;48.744;10.106;2022-10-16T12:52:04;40.80;2.30
1011;DHT22;494;48.744;10.106;2022-10-16T12:54:36;40.80;1.40
1011;DHT22;494;48.744;10.106;2022-10-16T12:57:19;41.00;2.10
1011;DHT22;494;48.744;10.106;2022-10-16T13:00:11;41.10;2.00
1011;DHT22;494;48.744;10.106;2022-10-16T13:03:07;41.00;1.70
1011;DHT22;494;48.744;10.106;2022-10-16T13:06:13;41.10;1.80
1011;DHT22;494;48.744;10.106;2022-10-16T13:09:22;41.10;1.90
1011;DHT22;494;48.744;10.106;2022-10-16T13:12:12;39.30;3.20
1011;DHT22;494;48.744;10.106;2022-10-16T13:15:02;37.30;4.90
1011;DHT22;494;48.744;10.106;2022-10-16T13:17:58;35.60;6.50
1011;DHT22;494;48.744;10.106;2022-10-16T13:20:46;34.50;8.40
1011;DHT22;494;48.744;10.106;2022-10-16T13:23:29;33.70;9.70
1011;DHT22;494;48.744;10.106;2022-10-16T13:26:18;33.00;10.80
1011;DHT22;494;48.744;10.106;2022-10-16T13:28:59;32.90;10.80
1011;DHT22;494;48.744;10.106;2022-10-16T13:31:30;33.10;10.20
1011;DHT22;494;48.744;10.106;2022-10-16T13:34:03;33.70;9.10
1011;DHT22;494;48.744;10.106;2022-10-16T14:07:20;30.00;16.50
1011;DHT22;494;48.744;10.106;2022-10-16T14:10:23;31.30;13.30
1011;DHT22;494;48.744;10.106;2022-10-16T14:13:01;32.70;11.20
1011;DHT22;494;48.744;10.106;2022-10-16T14:15:36;34.50;8.80
1011;DHT22;494;48.744;10.106;2022-10-16T14:25:40;36.30;6.50
1011;DHT22;494;48.744;10.106;2022-10-16T14:28:34;37.00;6.80
1011;DHT22;494;48.744;10.106;2022-10-16T14:31:33;37.60;5.00
1011;DHT22;494;48.744;10.106;2022-10-16T14:34:28;38.00;5.30
1011;DHT22;494;48.744;10.106;2022-10-16T14:37:05;37.70;5.80
1011;DHT22;494;48.744;10.106;2022-10-16T14:40:28;37.00;6.20
1011;DHT22;494;48.744;10.106;2022-10-16T14:42:55;36.40;6.80
1011;DHT22;494;48.744;10.106;2022-10-16T14:45:35;35.40;7.70
1011;DHT22;494;48.744;10.106;2022-10-16T14:51:51;33.70;10.00
1011;DHT22;494;48.744;10.106;2022-10-16T14:54:23;32.80;11.50
1011;DHT22;494;48.744;10.106;2022-10-16T14:56:53;32.30;12.00
1011;DHT22;494;48.744;10.106;2022-10-16T14:59:30;31.80;12.00
1011;DHT22;494;48.744;10.106;2022-10-16T15:02:15;31.20;14.50
1011;DHT22;494;48.744;10.106;2022-10-16T15:04:49;30.40;17.10
1011;DHT22;494;48.744;10.106;2022-10-16T15:07:18;29.50;16.50
1011;DHT22;494;48.744;10.106;2022-10-16T15:09:47;28.70;18.70
1011;DHT22;494;48.744;10.106;2022-10-16T15:12:16;28.00;20.10
1011;DHT22;494;48.744;10.106;2022-10-16T15:14:46;27.40;21.90
1011;DHT22;494;48.744;10.106;2022-10-16T15:17:15;26.80;23.00
1011;DHT22;494;48.744;10.106;2022-10-16T15:19:48;26.40;24.70
1011;DHT22;494;48.744;10.106;2022-10-16T15:22:18;25.90;25.40
1011;DHT22;494;48.744;10.106;2022-10-16T15:24:46;25.60;27.10
1011;DHT22;494;48.744;10.106;2022-10-16T15:27:15;25.40;28.20
1011;DHT22;494;48.744;10.106;2022-10-16T15:29:45;25.20;29.00
1011;DHT22;494;48.744;10.106;2022-10-16T15:32:14;25.10;29.70
1011;DHT22;494;48.744;10.106;2022-10-16T15:34:42;24.80;32.30
1011;DHT22;494;48.744;10.106;2022-10-16T15:37:11;24.50;32.80
1011;DHT22;494;48.744;10.106;2022-10-16T15:39:40;24.40;32.90
1011;DHT22;494;48.744;10.106;2022-10-16T15:42:11;24.30;33.30
1011;DHT22;494;48.744;10.106;2022-10-16T15:44:53;24.10;33.80
1011;DHT22;494;48.744;10.106;2022-10-16T15:47:25;24.00;34.50
1011;DHT22;494;48.744;10.106;2022-10-16T15:49:53;23.90;35.40
1011;DHT22;494;48.744;10.106;2022-10-16T15:52:22;23.80;36.10
1011;DHT22;494;48.744;10.106;2022-10-16T15:54:53;23.60;36.80
1011;DHT22;494;48.744;10.106;2022-10-16T15:57:23;23.40;37.40
1011;DHT22;494;48.744;10.106;2022-10-16T15:59:54;23.30;37.70
1011;DHT22;494;48.744;10.106;2022-10-16T16:02:23;23.30;38.20
1011;DHT22;494;48.744;10.106;2022-10-16T16:04:52;23.10;38.60
1011;DHT22;494;48.744;10.106;2022-10-16T16:07:23;23.00;39.00
1011;DHT22;494;48.744;10.106;2022-10-16T16:09:52;22.90;39.60
1011;DHT22;494;48.744;10.106;2022-10-16T16:12:21;22.80;40.10
1011;DHT22;494;48.744;10.106;2022-10-16T16:14:50;22.60;40.60
1011;DHT22;494;48.744;10.106;2022-10-16T16:17:20;22.60;41.10
1011;DHT22;494;48.744;10.106;2022-10-16T16:19:48;22.50;41.40
1011;DHT22;494;48.744;10.106;2022-10-16T16:22:17;22.50;41.60
1011;DHT22;494;48.744;10.106;2022-10-16T16:24:46;22.40;42.00
1011;DHT22;494;48.744;10.106;2022-10-16T16:27:15;22.10;42.80
1011;DHT22;494;48.744;10.106;2022-10-16T16:29:44;22.00;43.40
1011;DHT22;494;48.744;10.106;2022-10-16T16:32:12;21.90;43.80
1011;DHT22;494;48.744;10.106;2022-10-16T16:44:11;21.80;44.80
1011;DHT22;494;48.744;10.106;2022-10-16T16:46:41;21.70;45.00
1011;DHT22;494;48.744;10.106;2022-10-16T16:49:21;21.60;45.00
1011;DHT22;494;48.744;10.106;2022-10-16T16:51:52;21.60;45.20
1011;DHT22;494;48.744;10.106;2022-10-16T16:54:21;21.60;45.70
1011;DHT22;494;48.744;10.106;2022-10-16T16:56:50;21.50;46.00
1011;DHT22;494;48.744;10.106;2022-10-16T16:59:20;21.50;46.20
1011;DHT22;494;48.744;10.106;2022-10-16T17:01:50;21.30;46.40
1011;DHT22;494;48.744;10.106;2022-10-16T17:04:23;21.20;47.20
1011;DHT22;494;48.744;10.106;2022-10-16T17:06:52;21.10;47.30
1011;DHT22;494;48.744;10.106;2022-10-16T17:09:23;21.10;47.30
1011;DHT22;494;48.744;10.106;2022-10-16T17:11:52;21.10;47.40
1011;DHT22;494;48.744;10.106;2022-10-16T17:14:23;21.10;47.50
1011;DHT22;494;48.744;10.106;2022-10-16T17:16:54;21.00;47.60
1011;DHT22;494;48.744;10.106;2022-10-16T17:19:23;21.00;48.40
1011;DHT22;494;48.744;10.106;2022-10-16T17:21:52;20.90;48.00
1011;DHT22;494;48.744;10.106;2022-10-16T17:24:32;20.80;48.10
1011;DHT22;494;48.744;10.106;2022-10-16T17:27:06;20.80;48.30
1011;DHT22;494;48.744;10.106;2022-10-16T17:29:52;20.80;48.50
1011;DHT22;494;48.744;10.106;2022-10-16T17:32:22;20.60;48.60
1011;DHT22;494;48.744;10.106;2022-10-16T17:34:53;20.50;49.00
1011;DHT22;494;48.744;10.106;2022-10-16T17:37:23;20.40;49.00
1011;DHT22;494;48.744;10.106;2022-10-16T17:39:52;20.40;49.30
1011;DHT22;494;48.744;10.106;2022-10-16T17:42:22;20.30;49.50
1011;DHT22;494;48.744;10.106;2022-10-16T17:44:54;20.20;49.60
1011;DHT22;494;48.744;10.106;2022-10-16T17:47:29;20.00;49.70
1011;DHT22;494;48.744;10.106;2022-10-16T17:50:04;20.00;49.70
1011;DHT22;494;48.744;10.106;2022-10-16T17:52:40;20.00;49.60
1011;DHT22;494;48.744;10.106;2022-10-16T17:55:10;19.90;49.70
1011;DHT22;494;48.744;10.106;2022-10-16T17:57:39;19.90;49.70
1011;DHT22;494;48.744;10.106;2022-10-16T18:00:27;19.80;49.40
1011;DHT22;494;48.744;10.106;2022-10-16T18:03:06;19.80;49.30
1011;DHT22;494;48.744;10.106;2022-10-16T18:05:37;19.60;49.30
1011;DHT22;494;48.744;10.106;2022-10-16T18:08:05;19.40;49.90
1011;DHT22;494;48.744;10.106;2022-10-16T18:10:34;19.40;50.40
1011;DHT22;494;48.744;10.106;2022-10-16T18:13:05;19.30;50.70
1011;DHT22;494;48.744;10.106;2022-10-16T18:15:38;19.30;50.60
1011;DHT22;494;48.744;10.106;2022-10-16T18:18:07;19.30;50.50
1011;DHT22;494;48.744;10.106;2022-10-16T18:20:36;19.20;50.40
1011;DHT22;494;48.744;10.106;2022-10-16T18:23:05;19.20;50.70
1011;DHT22;494;48.744;10.106;2022-10-16T18:25:34;19.00;51.00
1011;DHT22;494;48.744;10.106;2022-10-16T18:28:02;19.00;50.90
1011;DHT22;494;48.744;10.106;2022-10-16T18:30:32;18.90;50.90
1011;DHT22;494;48.744;10.106;2022-10-16T18:33:02;18.90;50.80
1011;DHT22;494;48.744;10.106;2022-10-16T18:35:34;18.80;50.80